sensor_id;sensor_type;location;lat;lon;timestamp;P1;durP1;ratioP1;P2;durP2;ratioP2
75220;SDS011;63802;53.232;6.570;2023-04-01T00:01:03;15.02;;;6.00;;
75220;SDS011;63802;53.232;6.570;2023-04-01T00:03:29;18.27;;;6.18;;
75220;SDS011;63802;53.232;6.570;2023-04-01T00:05:56;17.38;;;7.68;;
75220;SDS011;63802;53.232;6.570;2023-04-01T00:08:22;13.68;;;6.13;;
75220;SDS011;63802;53.232;6.570;2023-04-01T00:10:48;14.20;;;5.72;;
75220;SDS011;63802;53.232;6.570;2023-04-01T00:13:13;15.75;;;7.10;;
75220;SDS011;63802;53.232;6.570;2023-04-01T00:15:39;14.35;;;6.82;;
75220;SDS011;63802;53.232;6.570;2023-04-01T00:18:05;16.52;;;7.30;;
75220;SDS011;63802;53.232;6.570;2023-04-01T00:20:31;15.32;;;6.05;;
75220;SDS011;63802;53.232;6.570;2023-04-01T00:22:57;15.50;;;6.45;;
75220;SDS011;63802;53.232;6.570;2023-04-01T00:25:23;11.65;;;5.57;;
75220;SDS011;63802;53.232;6.570;2023-04-01T00:27:49;15.82;;;6.03;;
75220;SDS011;63802;53.232;6.570;2023-04-01T00:30:15;13.75;;;6.10;;
75220;SDS011;63802;53.232;6.570;2023-04-01T00:32:41;12.77;;;6.25;;
75220;SDS011;63802;53.232;6.570;2023-04-01T00:35:07;14.13;;;6.00;;
75220;SDS011;63802;53.232;6.570;2023-04-01T00:37:34;11.13;;;5.30;;
75220;SDS011;63802;53.232;6.570;2023-04-01T00:40:00;12.40;;;6.07;;
75220;SDS011;63802;53.232;6.570;2023-04-01T00:42:26;19.23;;;7.20;;
75220;SDS011;63802;53.232;6.570;2023-04-01T00:44:52;18.42;;;7.72;;
75220;SDS011;63802;53.232;6.570;2023-04-01T00:47:19;15.45;;;6.75;;
75220;SDS011;63802;53.232;6.570;2023-04-01T00:49:46;14.27;;;5.63;;
75220;SDS011;63802;53.232;6.570;2023-04-01T00:52:15;17.20;;;6.90;;
75220;SDS011;63802;53.232;6.570;2023-04-01T00:54:45;18.85;;;6.25;;
75220;SDS011;63802;53.232;6.570;2023-04-01T00:57:15;15.77;;;6.10;;
75220;SDS011;63802;53.232;6.570;2023-04-01T00:59:46;15.95;;;6.15;;
75220;SDS011;63802;53.232;6.570;2023-04-01T01:02:15;15.90;;;6.03;;
75220;SDS011;63802;53.232;6.570;2023-04-01T01:04:41;18.40;;;7.18;;
75220;SDS011;63802;53.232;6.570;2023-04-01T01:23:39;14.50;;;5.90;;
75220;SDS011;63802;53.232;6.570;2023-04-01T01:37:23;14.13;;;6.25;;
75220;SDS011;63802;53.232;6.570;2023-04-01T01:39:56;14.80;;;6.57;;
75220;SDS011;63802;53.232;6.570;2023-04-01T01:42:26;14.18;;;6.38;;
75220;SDS011;63802;53.232;6.570;2023-04-01T01:44:54;14.65;;;6.28;;
75220;SDS011;63802;53.232;6.570;2023-04-01T01:47:22;15.32;;;6.28;;
75220;SDS011;63802;53.232;6.570;2023-04-01T01:49:48;15.43;;;6.63;;
75220;SDS011;63802;53.232;6.570;2023-04-01T01:52:16;15.73;;;6.65;;
75220;SDS011;63802;53.232;6.570;2023-04-01T01:54:52;18.13;;;7.65;;
75220;SDS011;63802;53.232;6.570;2023-04-01T01:57:22;18.52;;;7.00;;
75220;SDS011;63802;53.232;6.570;2023-04-01T01:59:52;15.48;;;6.15;;
75220;SDS011;63802;53.232;6.570;2023-04-01T02:02:20;14.80;;;6.97;;
75220;SDS011;63802;53.232;6.570;2023-04-01T02:04:47;15.85;;;6.40;;
75220;SDS011;63802;53.232;6.570;2023-04-01T02:07:24;12.98;;;5.90;;
75220;SDS011;63802;53.232;6.570;2023-04-01T02:09:55;16.65;;;6.63;;
75220;SDS011;63802;53.232;6.570;2023-04-01T02:12:21;17.00;;;7.03;;
75220;SDS011;63802;53.232;6.570;2023-04-01T02:14:51;13.43;;;5.90;;
75220;SDS011;63802;53.232;6.570;2023-04-01T02:17:21;15.98;;;6.65;;
75220;SDS011;63802;53.232;6.570;2023-04-01T02:19:50;14.10;;;6.28;;
75220;SDS011;63802;53.232;6.570;2023-04-01T02:22:20;15.85;;;6.85;;
75220;SDS011;63802;53.232;6.570;2023-04-01T02:24:49;14.93;;;6.55;;
75220;SDS011;63802;53.232;6.570;2023-04-01T02:27:17;19.83;;;6.97;;
75220;SDS011;63802;53.232;6.570;2023-04-01T02:29:43;15.00;;;6.15;;
75220;SDS011;63802;53.232;6.570;2023-04-01T02:32:08;18.88;;;6.78;;
75220;SDS011;63802;53.232;6.570;2023-04-01T02:34:35;16.58;;;7.35;;
75220;SDS011;63802;53.232;6.570;2023-04-01T02:37:01;16.50;;;6.88;;
75220;SDS011;63802;53.232;6.570;2023-04-01T02:39:27;17.35;;;7.22;;
75220;SDS011;63802;53.232;6.570;2023-04-01T02:41:52;21.23;;;7.78;;
75220;SDS011;63802;53.232;6.570;2023-04-01T02:44:18;15.70;;;6.70;;
75220;SDS011;63802;53.232;6.570;2023-04-01T02:46:43;17.48;;;6.88;;
75220;SDS011;63802;53.232;6.570;2023-04-01T02:49:09;20.98;;;6.32;;
75220;SDS011;63802;53.232;6.570;2023-04-01T02:51:34;17.35;;;6.93;;
75220;SDS011;63802;53.232;6.570;2023-04-01T02:54:01;15.98;;;6.60;;
75220;SDS011;63802;53.232;6.570;2023-04-01T02:56:26;15.57;;;6.70;;
75220;SDS011;63802;53.232;6.570;2023-04-01T02:58:52;16.10;;;7.03;;
75220;SDS011;63802;53.232;6.570;2023-04-01T03:01:19;18.00;;;7.70;;
75220;SDS011;63802;53.232;6.570;2023-04-01T03:03:45;18.75;;;7.32;;
75220;SDS011;63802;53.232;6.570;2023-04-01T03:06:11;16.95;;;7.72;;
75220;SDS011;63802;53.232;6.570;2023-04-01T03:08:38;18.33;;;7.22;;
75220;SDS011;63802;53.232;6.570;2023-04-01T03:11:04;21.10;;;7.68;;
75220;SDS011;63802;53.232;6.570;2023-04-01T03:13:30;20.00;;;7.85;;
75220;SDS011;63802;53.232;6.570;2023-04-01T03:15:55;22.63;;;8.57;;
75220;SDS011;63802;53.232;6.570;2023-04-01T03:18:21;21.33;;;8.80;;
75220;SDS011;63802;53.232;6.570;2023-04-01T03:20:46;20.80;;;8.57;;
75220;SDS011;63802;53.232;6.570;2023-04-01T03:23:12;20.77;;;7.85;;
75220;SDS011;63802;53.232;6.570;2023-04-01T03:25:38;23.48;;;8.98;;
75220;SDS011;63802;53.232;6.570;2023-04-01T03:28:03;24.10;;;9.20;;
75220;SDS011;63802;53.232;6.570;2023-04-01T03:30:29;24.40;;;8.25;;
75220;SDS011;63802;53.232;6.570;2023-04-01T03:32:57;23.80;;;9.25;;
75220;SDS011;63802;53.232;6.570;2023-04-01T03:35:24;24.95;;;9.38;;
75220;SDS011;63802;53.232;6.570;2023-04-01T03:37:50;23.98;;;8.25;;
75220;SDS011;63802;53.232;6.570;2023-04-01T03:40:16;23.27;;;8.90;;
75220;SDS011;63802;53.232;6.570;2023-04-01T03:42:42;24.70;;;9.48;;
75220;SDS011;63802;53.232;6.570;2023-04-01T03:45:08;21.52;;;8.85;;
75220;SDS011;63802;53.232;6.570;2023-04-01T03:47:34;29.35;;;9.50;;
75220;SDS011;63802;53.232;6.570;2023-04-01T03:50:00;26.88;;;9.70;;
75220;SDS011;63802;53.232;6.570;2023-04-01T03:52:25;26.17;;;9.32;;
75220;SDS011;63802;53.232;6.570;2023-04-01T03:54:50;25.05;;;9.15;;
75220;SDS011;63802;53.232;6.570;2023-04-01T03:57:16;25.23;;;9.00;;
75220;SDS011;63802;53.232;6.570;2023-04-01T03:59:41;23.98;;;9.00;;
75220;SDS011;63802;53.232;6.570;2023-04-01T04:02:06;20.90;;;8.98;;
75220;SDS011;63802;53.232;6.570;2023-04-01T04:04:32;24.15;;;8.95;;
75220;SDS011;63802;53.232;6.570;2023-04-01T04:06:57;24.40;;;9.15;;
75220;SDS011;63802;53.232;6.570;2023-04-01T04:09:23;23.27;;;9.70;;
75220;SDS011;63802;53.232;6.570;2023-04-01T04:11:49;24.85;;;8.60;;
75220;SDS011;63802;53.232;6.570;2023-04-01T04:14:14;24.05;;;9.20;;
75220;SDS011;63802;53.232;6.570;2023-04-01T04:16:40;29.02;;;9.82;;
75220;SDS011;63802;53.232;6.570;2023-04-01T04:19:06;22.75;;;8.48;;
75220;SDS011;63802;53.232;6.570;2023-04-01T04:21:31;24.63;;;9.60;;
75220;SDS011;63802;53.232;6.570;2023-04-01T04:23:58;20.45;;;8.68;;
75220;SDS011;63802;53.232;6.570;2023-04-01T04:26:24;25.40;;;9.20;;
75220;SDS011;63802;53.232;6.570;2023-04-01T04:28:50;24.95;;;10.00;;
75220;SDS011;63802;53.232;6.570;2023-04-01T04:31:23;24.45;;;8.63;;
75220;SDS011;63802;53.232;6.570;2023-04-01T04:33:51;21.30;;;8.98;;
75220;SDS011;63802;53.232;6.570;2023-04-01T04:36:17;23.27;;;9.38;;
75220;SDS011;63802;53.232;6.570;2023-04-01T04:38:43;23.38;;;8.98;;
75220;SDS011;63802;53.232;6.570;2023-04-01T04:41:09;23.52;;;9.35;;
75220;SDS011;63802;53.232;6.570;2023-04-01T04:43:36;23.60;;;9.32;;
75220;SDS011;63802;53.232;6.570;2023-04-01T04:46:06;24.27;;;9.77;;
75220;SDS011;63802;53.232;6.570;2023-04-01T04:48:35;22.52;;;8.90;;
75220;SDS011;63802;53.232;6.570;2023-04-01T04:51:02;21.90;;;9.10;;
75220;SDS011;63802;53.232;6.570;2023-04-01T04:53:28;24.60;;;9.30;;
75220;SDS011;63802;53.232;6.570;2023-04-01T04:55:53;22.60;;;9.18;;
75220;SDS011;63802;53.232;6.570;2023-04-01T04:58:19;22.58;;;9.50;;
75220;SDS011;63802;53.232;6.570;2023-04-01T05:00:45;26.15;;;10.02;;
75220;SDS011;63802;53.232;6.570;2023-04-01T05:03:11;25.73;;;9.80;;
75220;SDS011;63802;53.232;6.570;2023-04-01T05:05:37;24.70;;;9.30;;
75220;SDS011;63802;53.232;6.570;2023-04-01T05:08:04;26.58;;;11.10;;
75220;SDS011;63802;53.232;6.570;2023-04-01T05:10:29;24.75;;;10.52;;
75220;SDS011;63802;53.232;6.570;2023-04-01T05:12:56;25.75;;;10.10;;
75220;SDS011;63802;53.232;6.570;2023-04-01T05:15:22;27.85;;;10.25;;
75220;SDS011;63802;53.232;6.570;2023-04-01T05:17:48;26.75;;;10.27;;
75220;SDS011;63802;53.232;6.570;2023-04-01T05:20:14;27.90;;;10.10;;
75220;SDS011;63802;53.232;6.570;2023-04-01T05:22:40;27.23;;;10.45;;
75220;SDS011;63802;53.232;6.570;2023-04-01T05:25:06;28.27;;;10.25;;
75220;SDS011;63802;53.232;6.570;2023-04-01T05:27:31;27.13;;;10.45;;
75220;SDS011;63802;53.232;6.570;2023-04-01T05:29:57;28.45;;;10.52;;
75220;SDS011;63802;53.232;6.570;2023-04-01T05:32:23;28.35;;;11.05;;
75220;SDS011;63802;53.232;6.570;2023-04-01T05:34:52;24.83;;;9.38;;
75220;SDS011;63802;53.232;6.570;2023-04-01T05:37:19;25.83;;;9.57;;
75220;SDS011;63802;53.232;6.570;2023-04-01T05:39:44;24.55;;;8.93;;
75220;SDS011;63802;53.232;6.570;2023-04-01T05:42:13;23.77;;;9.77;;
75220;SDS011;63802;53.232;6.570;2023-04-01T05:44:38;24.25;;;8.70;;
75220;SDS011;63802;53.232;6.570;2023-04-01T05:47:04;25.58;;;9.43;;
75220;SDS011;63802;53.232;6.570;2023-04-01T05:49:30;25.00;;;9.70;;
75220;SDS011;63802;53.232;6.570;2023-04-01T05:51:56;20.83;;;9.07;;
75220;SDS011;63802;53.232;6.570;2023-04-01T05:54:24;20.90;;;9.02;;
75220;SDS011;63802;53.232;6.570;2023-04-01T05:56:50;23.25;;;8.75;;
75220;SDS011;63802;53.232;6.570;2023-04-01T05:59:15;23.20;;;8.52;;
75220;SDS011;63802;53.232;6.570;2023-04-01T06:01:41;16.98;;;7.18;;
75220;SDS011;63802;53.232;6.570;2023-04-01T06:04:06;19.95;;;8.40;;
75220;SDS011;63802;53.232;6.570;2023-04-01T06:06:32;23.10;;;8.25;;
75220;SDS011;63802;53.232;6.570;2023-04-01T06:08:58;19.63;;;8.10;;
75220;SDS011;63802;53.232;6.570;2023-04-01T06:20:08;21.23;;;8.43;;
75220;SDS011;63802;53.232;6.570;2023-04-01T06:42:24;23.52;;;10.00;;
75220;SDS011;63802;53.232;6.570;2023-04-01T06:48:00;25.10;;;10.27;;
75220;SDS011;63802;53.232;6.570;2023-04-01T06:56:04;25.55;;;10.82;;
75220;SDS011;63802;53.232;6.570;2023-04-01T06:58:34;29.27;;;11.60;;
75220;SDS011;63802;53.232;6.570;2023-04-01T07:01:08;29.27;;;11.15;;
75220;SDS011;63802;53.232;6.570;2023-04-01T07:03:47;27.85;;;10.88;;
75220;SDS011;63802;53.232;6.570;2023-04-01T07:09:10;29.35;;;11.52;;
75220;SDS011;63802;53.232;6.570;2023-04-01T07:11:41;29.30;;;12.30;;
75220;SDS011;63802;53.232;6.570;2023-04-01T07:14:13;27.13;;;11.77;;
75220;SDS011;63802;53.232;6.570;2023-04-01T07:25:18;26.77;;;11.77;;
75220;SDS011;63802;53.232;6.570;2023-04-01T07:27:52;26.02;;;10.95;;
75220;SDS011;63802;53.232;6.570;2023-04-01T07:30:21;27.58;;;12.32;;
75220;SDS011;63802;53.232;6.570;2023-04-01T07:35:36;27.92;;;12.18;;
75220;SDS011;63802;53.232;6.570;2023-04-01T07:49:41;23.23;;;10.52;;
75220;SDS011;63802;53.232;6.570;2023-04-01T07:52:23;25.88;;;11.10;;
75220;SDS011;63802;53.232;6.570;2023-04-01T07:55:02;22.90;;;9.60;;
75220;SDS011;63802;53.232;6.570;2023-04-01T07:57:47;20.33;;;9.88;;
75220;SDS011;63802;53.232;6.570;2023-04-01T08:21:58;16.77;;;7.72;;
75220;SDS011;63802;53.232;6.570;2023-04-01T08:24:35;17.23;;;7.95;;
75220;SDS011;63802;53.232;6.570;2023-04-01T08:27:09;19.52;;;8.98;;
75220;SDS011;63802;53.232;6.570;2023-04-01T08:30:18;22.15;;;8.38;;
75220;SDS011;63802;53.232;6.570;2023-04-01T08:33:06;20.00;;;8.75;;
75220;SDS011;63802;53.232;6.570;2023-04-01T08:38:23;19.60;;;8.85;;
75220;SDS011;63802;53.232;6.570;2023-04-01T08:40:55;18.08;;;8.10;;
75220;SDS011;63802;53.232;6.570;2023-04-01T08:45:53;17.30;;;7.90;;
75220;SDS011;63802;53.232;6.570;2023-04-01T08:51:06;10.93;;;4.93;;
75220;SDS011;63802;53.232;6.570;2023-04-01T08:59:31;9.00;;;4.35;;
75220;SDS011;63802;53.232;6.570;2023-04-01T09:08:11;11.32;;;4.32;;
75220;SDS011;63802;53.232;6.570;2023-04-01T09:11:00;9.98;;;4.28;;
75220;SDS011;63802;53.232;6.570;2023-04-01T09:30:58;4.32;;;2.60;;
75220;SDS011;63802;53.232;6.570;2023-04-01T09:33:48;5.85;;;2.63;;
75220;SDS011;63802;53.232;6.570;2023-04-01T09:38:58;3.70;;;2.35;;
75220;SDS011;63802;53.232;6.570;2023-04-01T09:41:31;4.97;;;2.10;;
75220;SDS011;63802;53.232;6.570;2023-04-01T09:44:03;5.97;;;2.83;;
75220;SDS011;63802;53.232;6.570;2023-04-01T10:18:01;6.93;;;2.70;;
75220;SDS011;63802;53.232;6.570;2023-04-01T10:29:24;6.75;;;2.28;;
75220;SDS011;63802;53.232;6.570;2023-04-01T10:43:19;2.67;;;2.22;;
75220;SDS011;63802;53.232;6.570;2023-04-01T10:46:16;5.13;;;2.30;;
75220;SDS011;63802;53.232;6.570;2023-04-01T10:55:07;4.32;;;2.42;;
75220;SDS011;63802;53.232;6.570;2023-04-01T11:07:28;4.80;;;2.50;;
75220;SDS011;63802;53.232;6.570;2023-04-01T11:29:27;5.53;;;2.22;;
75220;SDS011;63802;53.232;6.570;2023-04-01T11:40:20;3.58;;;2.10;;
75220;SDS011;63802;53.232;6.570;2023-04-01T11:48:44;5.07;;;2.30;;
75220;SDS011;63802;53.232;6.570;2023-04-01T11:54:40;4.43;;;2.08;;
75220;SDS011;63802;53.232;6.570;2023-04-01T11:57:22;3.65;;;2.15;;
75220;SDS011;63802;53.232;6.570;2023-04-01T12:03:10;1.98;;;1.63;;
75220;SDS011;63802;53.232;6.570;2023-04-01T12:14:12;3.83;;;1.95;;
75220;SDS011;63802;53.232;6.570;2023-04-01T12:17:04;4.30;;;2.13;;
75220;SDS011;63802;53.232;6.570;2023-04-01T12:19:39;2.08;;;1.80;;
75220;SDS011;63802;53.232;6.570;2023-04-01T12:24:56;4.55;;;2.08;;
75220;SDS011;63802;53.232;6.570;2023-04-01T12:27:41;3.13;;;2.05;;
75220;SDS011;63802;53.232;6.570;2023-04-01T12:33:18;2.65;;;2.00;;
75220;SDS011;63802;53.232;6.570;2023-04-01T12:36:00;4.22;;;2.10;;
75220;SDS011;63802;53.232;6.570;2023-04-01T12:38:43;3.15;;;2.15;;
75220;SDS011;63802;53.232;6.570;2023-04-01T12:44:13;2.60;;;2.00;;
75220;SDS011;63802;53.232;6.570;2023-04-01T12:49:52;2.30;;;1.92;;
75220;SDS011;63802;53.232;6.570;2023-04-01T12:52:33;2.97;;;2.20;;
75220;SDS011;63802;53.232;6.570;2023-04-01T12:58:03;3.58;;;2.00;;
75220;SDS011;63802;53.232;6.570;2023-04-01T13:00:58;2.83;;;1.98;;
75220;SDS011;63802;53.232;6.570;2023-04-01T13:06:43;3.95;;;2.33;;
75220;SDS011;63802;53.232;6.570;2023-04-01T13:09:32;4.25;;;2.13;;
75220;SDS011;63802;53.232;6.570;2023-04-01T13:20:20;2.75;;;2.10;;
75220;SDS011;63802;53.232;6.570;2023-04-01T13:29:10;2.55;;;1.83;;
75220;SDS011;63802;53.232;6.570;2023-04-01T13:37:18;4.05;;;1.88;;
75220;SDS011;63802;53.232;6.570;2023-04-01T13:40:00;3.75;;;2.10;;
75220;SDS011;63802;53.232;6.570;2023-04-01T13:42:43;3.30;;;1.90;;
75220;SDS011;63802;53.232;6.570;2023-04-01T13:45:29;3.05;;;2.03;;
75220;SDS011;63802;53.232;6.570;2023-04-01T13:51:07;1.70;;;1.60;;
75220;SDS011;63802;53.232;6.570;2023-04-01T14:05:08;3.67;;;1.70;;
75220;SDS011;63802;53.232;6.570;2023-04-01T14:13:05;3.28;;;1.75;;
75220;SDS011;63802;53.232;6.570;2023-04-01T14:15:58;2.38;;;1.88;;
75220;SDS011;63802;53.232;6.570;2023-04-01T14:18:42;2.72;;;1.92;;
75220;SDS011;63802;53.232;6.570;2023-04-01T14:21:27;2.58;;;1.50;;
75220;SDS011;63802;53.232;6.570;2023-04-01T14:29:36;2.80;;;1.48;;
75220;SDS011;63802;53.232;6.570;2023-04-01T14:35:26;3.47;;;1.77;;
75220;SDS011;63802;53.232;6.570;2023-04-01T14:40:55;2.58;;;1.50;;
75220;SDS011;63802;53.232;6.570;2023-04-01T14:49:46;1.75;;;1.50;;
75220;SDS011;63802;53.232;6.570;2023-04-01T14:52:32;4.20;;;1.90;;
75220;SDS011;63802;53.232;6.570;2023-04-01T14:55:23;2.67;;;1.80;;
75220;SDS011;63802;53.232;6.570;2023-04-01T14:58:00;3.95;;;2.10;;
75220;SDS011;63802;53.232;6.570;2023-04-01T15:00:41;2.53;;;1.75;;
75220;SDS011;63802;53.232;6.570;2023-04-01T15:09:26;3.70;;;2.05;;
75220;SDS011;63802;53.232;6.570;2023-04-01T15:14:40;4.43;;;2.00;;
75220;SDS011;63802;53.232;6.570;2023-04-01T15:17:22;3.28;;;1.85;;
75220;SDS011;63802;53.232;6.570;2023-04-01T15:25:32;4.38;;;2.50;;
75220;SDS011;63802;53.232;6.570;2023-04-01T15:28:23;6.35;;;2.53;;
75220;SDS011;63802;53.232;6.570;2023-04-01T15:47:26;6.93;;;2.83;;
75220;SDS011;63802;53.232;6.570;2023-04-01T16:00:54;8.38;;;3.70;;
75220;SDS011;63802;53.232;6.570;2023-04-01T16:03:34;10.27;;;3.88;;
75220;SDS011;63802;53.232;6.570;2023-04-01T16:09:20;9.02;;;3.05;;
75220;SDS011;63802;53.232;6.570;2023-04-01T16:12:04;6.55;;;3.33;;
75220;SDS011;63802;53.232;6.570;2023-04-01T16:15:08;7.35;;;3.65;;
75220;SDS011;63802;53.232;6.570;2023-04-01T16:20:40;8.43;;;3.75;;
75220;SDS011;63802;53.232;6.570;2023-04-01T16:23:58;10.82;;;3.72;;
75220;SDS011;63802;53.232;6.570;2023-04-01T16:26:19;10.10;;;3.53;;
75220;SDS011;63802;53.232;6.570;2023-04-01T16:28:57;11.10;;;4.03;;
75220;SDS011;63802;53.232;6.570;2023-04-01T16:31:37;9.45;;;3.60;;
75220;SDS011;63802;53.232;6.570;2023-04-01T16:36:45;10.23;;;3.80;;
75220;SDS011;63802;53.232;6.570;2023-04-01T16:39:22;8.13;;;3.60;;
75220;SDS011;63802;53.232;6.570;2023-04-01T16:44:31;9.43;;;4.38;;
75220;SDS011;63802;53.232;6.570;2023-04-01T16:47:14;9.38;;;4.50;;
75220;SDS011;63802;53.232;6.570;2023-04-01T16:49:46;10.90;;;4.72;;
75220;SDS011;63802;53.232;6.570;2023-04-01T16:59:04;9.43;;;4.65;;
75220;SDS011;63802;53.232;6.570;2023-04-01T17:01:47;9.95;;;4.28;;
75220;SDS011;63802;53.232;6.570;2023-04-01T17:06:56;10.55;;;4.00;;
75220;SDS011;63802;53.232;6.570;2023-04-01T17:09:48;13.48;;;4.10;;
75220;SDS011;63802;53.232;6.570;2023-04-01T17:20:46;8.85;;;3.83;;
75220;SDS011;63802;53.232;6.570;2023-04-01T17:23:20;11.02;;;4.22;;
75220;SDS011;63802;53.232;6.570;2023-04-01T17:28:57;10.57;;;3.92;;
75220;SDS011;63802;53.232;6.570;2023-04-01T17:31:41;9.20;;;3.75;;
75220;SDS011;63802;53.232;6.570;2023-04-01T17:39:59;12.52;;;4.38;;
75220;SDS011;63802;53.232;6.570;2023-04-01T17:42:40;10.82;;;4.03;;
75220;SDS011;63802;53.232;6.570;2023-04-01T17:45:24;9.25;;;3.90;;
75220;SDS011;63802;53.232;6.570;2023-04-01T17:48:03;15.02;;;5.18;;
75220;SDS011;63802;53.232;6.570;2023-04-01T17:53:18;13.38;;;4.40;;
75220;SDS011;63802;53.232;6.570;2023-04-01T18:06:36;13.75;;;5.80;;
75220;SDS011;63802;53.232;6.570;2023-04-01T18:15:03;17.33;;;6.55;;
75220;SDS011;63802;53.232;6.570;2023-04-01T18:28:56;11.93;;;5.10;;
75220;SDS011;63802;53.232;6.570;2023-04-01T18:31:38;16.10;;;6.30;;
75220;SDS011;63802;53.232;6.570;2023-04-01T18:34:12;13.43;;;6.07;;
75220;SDS011;63802;53.232;6.570;2023-04-01T18:39:40;11.52;;;4.80;;
75220;SDS011;63802;53.232;6.570;2023-04-01T18:42:08;12.82;;;4.57;;
75220;SDS011;63802;53.232;6.570;2023-04-01T18:44:48;10.02;;;4.32;;
75220;SDS011;63802;53.232;6.570;2023-04-01T18:47:25;12.32;;;5.78;;
75220;SDS011;63802;53.232;6.570;2023-04-01T18:50:11;10.90;;;4.65;;
75220;SDS011;63802;53.232;6.570;2023-04-01T18:52:45;12.40;;;5.20;;
75220;SDS011;63802;53.232;6.570;2023-04-01T18:57:49;17.83;;;6.70;;
75220;SDS011;63802;53.232;6.570;2023-04-01T19:00:25;9.90;;;4.75;;
75220;SDS011;63802;53.232;6.570;2023-04-01T19:05:24;8.63;;;4.25;;
75220;SDS011;63802;53.232;6.570;2023-04-01T19:08:12;11.57;;;4.50;;
75220;SDS011;63802;53.232;6.570;2023-04-01T19:10:53;14.63;;;5.65;;
75220;SDS011;63802;53.232;6.570;2023-04-01T19:18:44;16.15;;;5.53;;
75220;SDS011;63802;53.232;6.570;2023-04-01T19:35:11;11.00;;;3.75;;
75220;SDS011;63802;53.232;6.570;2023-04-01T19:38:05;12.18;;;4.70;;
75220;SDS011;63802;53.232;6.570;2023-04-01T19:44:12;12.20;;;3.88;;
75220;SDS011;63802;53.232;6.570;2023-04-01T19:46:48;9.93;;;4.47;;
75220;SDS011;63802;53.232;6.570;2023-04-01T19:52:14;9.23;;;4.13;;
75220;SDS011;63802;53.232;6.570;2023-04-01T19:57:27;10.52;;;4.30;;
75220;SDS011;63802;53.232;6.570;2023-04-01T20:02:38;11.73;;;4.10;;
75220;SDS011;63802;53.232;6.570;2023-04-01T20:08:16;9.35;;;4.05;;
75220;SDS011;63802;53.232;6.570;2023-04-01T20:13:47;8.27;;;3.50;;
75220;SDS011;63802;53.232;6.570;2023-04-01T20:16:19;7.43;;;3.63;;
75220;SDS011;63802;53.232;6.570;2023-04-01T20:18:52;10.75;;;4.10;;
75220;SDS011;63802;53.232;6.570;2023-04-01T20:29:47;9.23;;;3.75;;
75220;SDS011;63802;53.232;6.570;2023-04-01T20:38:10;12.63;;;3.92;;
75220;SDS011;63802;53.232;6.570;2023-04-01T20:41:05;7.70;;;3.28;;
75220;SDS011;63802;53.232;6.570;2023-04-01T20:46:36;13.90;;;3.45;;
75220;SDS011;63802;53.232;6.570;2023-04-01T20:49:14;9.50;;;3.75;;
75220;SDS011;63802;53.232;6.570;2023-04-01T20:57:14;7.65;;;3.60;;
75220;SDS011;63802;53.232;6.570;2023-04-01T21:08:22;9.50;;;3.58;;
75220;SDS011;63802;53.232;6.570;2023-04-01T21:24:23;8.02;;;3.72;;
75220;SDS011;63802;53.232;6.570;2023-04-01T21:30:44;6.57;;;3.45;;
75220;SDS011;63802;53.232;6.570;2023-04-01T21:35:31;8.65;;;3.47;;
75220;SDS011;63802;53.232;6.570;2023-04-01T21:43:37;5.43;;;2.83;;
75220;SDS011;63802;53.232;6.570;2023-04-01T21:52:29;10.02;;;3.42;;
75220;SDS011;63802;53.232;6.570;2023-04-01T22:02:10;9.13;;;3.65;;
75220;SDS011;63802;53.232;6.570;2023-04-01T22:09:47;7.32;;;3.40;;
75220;SDS011;63802;53.232;6.570;2023-04-01T22:18:31;7.00;;;3.22;;
75220;SDS011;63802;53.232;6.570;2023-04-01T22:26:09;10.45;;;3.67;;
75220;SDS011;63802;53.232;6.570;2023-04-01T22:31:41;5.10;;;2.22;;
75220;SDS011;63802;53.232;6.570;2023-04-01T22:44:46;7.63;;;2.40;;
75220;SDS011;63802;53.232;6.570;2023-04-01T22:50:09;11.65;;;2.40;;
75220;SDS011;63802;53.232;6.570;2023-04-01T22:52:42;6.45;;;2.42;;
75220;SDS011;63802;53.232;6.570;2023-04-01T22:55:15;12.43;;;2.50;;
75220;SDS011;63802;53.232;6.570;2023-04-01T23:03:19;8.43;;;2.85;;
75220;SDS011;63802;53.232;6.570;2023-04-01T23:05:51;5.82;;;2.53;;
75220;SDS011;63802;53.232;6.570;2023-04-01T23:11:00;6.97;;;2.53;;
75220;SDS011;63802;53.232;6.570;2023-04-01T23:13:38;7.05;;;2.50;;
75220;SDS011;63802;53.232;6.570;2023-04-01T23:16:09;6.75;;;2.75;;
75220;SDS011;63802;53.232;6.570;2023-04-01T23:21:12;6.88;;;2.92;;
75220;SDS011;63802;53.232;6.570;2023-04-01T23:23:47;5.22;;;2.47;;
75220;SDS011;63802;53.232;6.570;2023-04-01T23:26:21;7.10;;;2.03;;
75220;SDS011;63802;53.232;6.570;2023-04-01T23:28:51;7.70;;;2.35;;
75220;SDS011;63802;53.232;6.570;2023-04-01T23:36:42;7.63;;;2.63;;
75220;SDS011;63802;53.232;6.570;2023-04-01T23:42:04;11.68;;;2.67;;
75220;SDS011;63802;53.232;6.570;2023-04-01T23:44:42;6.00;;;2.63;;
75220;SDS011;63802;53.232;6.570;2023-04-01T23:47:11;4.10;;;2.10;;
75220;SDS011;63802;53.232;6.570;2023-04-01T23:49:43;5.03;;;2.75;;
75220;SDS011;63802;53.232;6.570;2023-04-01T23:52:30;6.43;;;2.65;;
75220;SDS011;63802;53.232;6.570;2023-04-01T23:55:02;7.07;;;2.80;;
